Altus Air Force Base, OK

3:03 AM CST on February 01, 2015 (GMT -0600)
Turner Home | Change Station
CLOSE
Current Station
Personal Weather Station
Location: Odell, TX
Elevation: 1347 ft
Nearby Weather Stations

Elev 1347 ft 34.34 °N, 99.42 °W | Updated 7 seconds ago

Overcast
Overcast
44.8 °F
Feels Like 45 °F
N
0.0
Wind Variable Wind from West
Gusts 0.0 mph

Today
High -- | Low -- °F
--% Chance of Precip.
Yesterday
High -- | Low -- °F
Precip. -- in
7:35 AM 6:06 PM
Waxing Gibbous, 94% visible
Pressure 29.85 in
Visibility 1.8 miles
Clouds Mostly Cloudy 300 ft
Overcast 3400 ft
Windchill 45 °F
Dew Point 44 °F
Humidity 95%
Rainfall 0.00 in
Snow Depth Not available.
UV 0 out of 12
Pollen 5.00 out of 12
Air Quality Not available.
Flu Activity Not available.
METAR KAXS 010855Z AUTO 00000KT 1 3/4SM BR BKN003 OVC034 07/06 A2985 RMK AO2 T00700063

More Conditions Fewer Conditions

Pressure 29.85 in
Visibility 1.8 miles
Clouds Mostly Cloudy 300 ft
Overcast 3400 ft
Windchill 45 °F
Dew Point 44 °F
Humidity 95%
Rainfall 0.00 in
Snow Depth Not available.
UV 0 out of 12
Pollen 5.00 out of 12
Air Quality Not available.
Flu Activity Not available.
METAR KAXS 010855Z AUTO 00000KT 1 3/4SM BR BKN003 OVC034 07/06 A2985 RMK AO2 T00700063

More Conditions Fewer Conditions

10-Day Weather Forecast

Almanac

Astronomy

Feb. 01, 2015 Rise Set
Actual Time
Civil Twilight
Nautical Twilight
Astronomical Twilight
Moon
Length of Visible Light
Length of Day
Tomorrow will be .
, % of the Moon is Illuminated

Today's Extremes

State Highs State Lows

Community

WunderPhotos

Upload Photos

1,792,338 photos uploaded!

WunderBlogs® & News

Nearby

Air Quality

  Air Quality AQ Index Pollutant
Not available.

Snow Depth

Station Depth Elevation

Earthquake Activity

City Distance Mag. Time & Date
Minimum magnitude displayed is 2.5.

Coastal Water Temperatures

Place Temperature

Nearby Weather Stations